Time;durP1;ratioP1;P1;durP2;ratioP2;P2;SDS_P1;SDS_P2;PMS_P1;PMS_P2;Temp;Humidity;BMP_temperature;BMP_pressure;BME280_temperature;BME280_humidity;BME280_pressure;Samples;Min_cycle;Max_cycle;Signal;HPM_P1;HPM_P2
2022/03/03 00:01:35;;;;;;;;;72.75;55.00;;;;;35.55;14.31;101262.88;5088304;27;45504;-89
2022/03/03 00:04:01;;;;;;;;;73.00;56.75;;;;;35.16;14.07;101200.66;5062581;27;45439;-88
2022/03/03 00:06:26;;;;;;;;;66.75;53.75;;;;;35.17;13.77;101205.19;5060832;27;45454;-89
2022/03/03 00:08:52;;;;;;;;;71.00;56.50;;;;;35.32;13.99;101192.13;5070626;27;45477;-88
2022/03/03 00:11:20;;;;;;;;;72.75;57.50;;;;;35.52;13.94;101209.84;5065263;27;47986;-88
2022/03/03 00:13:46;;;;;;;;;71.75;56.25;;;;;35.44;13.94;101182.84;5081096;27;45974;-87
2022/03/03 00:16:11;;;;;;;;;69.50;56.00;;;;;35.64;13.75;101222.66;5067274;27;46021;-86
2022/03/03 00:18:37;;;;;;;;;69.75;56.00;;;;;35.42;13.64;101178.47;5059478;28;45932;-86
2022/03/03 00:21:03;;;;;;;;;68.25;56.00;;;;;35.86;13.52;101246.66;5068800;27;46963;-87
2022/03/03 00:23:29;;;;;;;;;66.25;53.00;;;;;35.52;13.45;101188.63;5078986;27;45354;-87
2022/03/03 00:25:54;;;;;;;;;71.50;56.00;;;;;35.81;13.64;101239.75;5081332;27;45575;-86
2022/03/03 00:28:20;;;;;;;;;67.00;54.00;;;;;35.31;13.38;101163.63;5080761;27;45569;-84
2022/03/03 00:30:45;;;;;;;;;70.50;54.75;;;;;35.37;13.89;101174.19;5087356;27;45846;-83
2022/03/03 00:33:10;;;;;;;;;65.75;53.50;;;;;35.79;13.42;101234.31;5076110;27;45390;-82
2022/03/03 00:35:36;;;;;;;;;65.00;51.75;;;;;35.60;13.66;101196.31;5082479;27;45402;-85
2022/03/03 00:38:01;;;;;;;;;67.75;54.75;;;;;35.54;13.55;101191.25;5068046;27;45892;-85
2022/03/03 00:40:26;;;;;;;;;67.25;53.25;;;;;35.57;13.93;101193.78;5070933;27;47979;-86
2022/03/03 00:42:52;;;;;;;;;69.50;55.00;;;;;34.82;14.50;101117.84;5070749;27;45424;-86
2022/03/03 00:45:17;;;;;;;;;69.25;55.50;;;;;34.93;14.07;101186.78;5072932;27;45499;-89
2022/03/03 00:47:43;;;;;;;;;61.50;50.75;;;;;34.75;14.51;101172.50;5080007;27;45461;-89
2022/03/03 00:50:08;;;;;;;;;67.00;53.50;;;;;35.09;13.82;101167.16;5084706;27;46377;-84
2022/03/03 00:52:34;;;;;;;;;67.00;55.75;;;;;35.42;14.11;101198.66;5072458;27;45801;-87
2022/03/03 00:55:02;;;;;;;;;65.25;53.00;;;;;35.45;14.24;101192.88;5067994;27;45599;-87
2022/03/03 00:57:27;;;;;;;;;70.75;55.25;;;;;35.53;13.88;101209.72;5064931;27;45524;-88
2022/03/03 00:59:53;;;;;;;;;66.00;51.50;;;;;35.46;13.98;101175.34;5067007;27;47943;-85
2022/03/03 01:02:18;;;;;;;;;61.25;50.25;;;;;35.50;13.99;101185.13;5073821;27;45458;-83
2022/03/03 01:04:43;;;;;;;;;65.75;51.00;;;;;35.50;14.03;101174.09;5067212;27;45626;-84
2022/03/03 01:07:09;;;;;;;;;69.75;54.00;;;;;35.69;13.79;101201.06;5062344;27;45545;-90
2022/03/03 01:09:34;;;;;;;;;67.50;54.00;;;;;35.51;14.12;101203.44;5063448;28;48295;-81
2022/03/03 01:12:00;;;;;;;;;73.00;58.00;;;;;35.09;14.15;101211.28;5067156;27;45436;-83
2022/03/03 01:14:25;;;;;;;;;69.75;55.25;;;;;34.80;15.09;101239.25;5082578;27;46132;-81
2022/03/03 01:16:51;;;;;;;;;74.00;57.75;;;;;34.76;14.96;101247.84;5068272;27;45393;-80
2022/03/03 01:19:17;;;;;;;;;70.75;55.50;;;;;35.15;14.47;101246.69;5082298;27;46397;-84
2022/03/03 01:21:43;;;;;;;;;64.00;52.25;;;;;34.98;14.51;101181.81;5075559;28;45587;-84
2022/03/03 01:24:08;;;;;;;;;66.75;53.50;;;;;35.32;14.36;101192.97;5074672;28;45451;-84
2022/03/03 01:26:34;;;;;;;;;65.50;53.00;;;;;35.83;13.83;101248.81;5074308;28;45485;-84
2022/03/03 01:28:59;;;;;;;;;68.00;53.00;;;;;35.48;13.72;101181.59;5057356;28;47201;-84
2022/03/03 01:31:25;;;;;;;;;70.75;53.50;;;;;35.29;14.21;101182.16;5057161;28;45516;-84
2022/03/03 01:33:50;;;;;;;;;71.25;55.50;;;;;35.45;14.30;101214.94;5057764;28;45539;-84
2022/03/03 01:36:15;;;;;;;;;69.25;54.75;;;;;35.52;13.89;101194.13;5074358;28;45655;-84
2022/03/03 01:38:41;;;;;;;;;64.50;52.75;;;;;35.42;13.93;101219.84;5056795;28;46964;-84
2022/03/03 01:41:07;;;;;;;;;72.75;57.00;;;;;34.94;14.70;101220.78;5073544;28;45383;-84
2022/03/03 01:43:33;;;;;;;;;72.25;57.00;;;;;34.93;14.94;101227.28;5073244;28;45402;-84
2022/03/03 01:45:58;;;;;;;;;71.75;56.25;;;;;34.99;14.17;101224.94;5072338;28;45493;-84
2022/03/03 01:48:24;;;;;;;;;72.75;57.50;;;;;35.16;14.13;101173.97;5073788;28;45746;-84
2022/03/03 01:50:49;;;;;;;;;74.75;56.75;;;;;35.82;14.27;101239.63;5072974;28;45467;-84
2022/03/03 01:53:15;;;;;;;;;68.00;53.75;;;;;35.83;14.26;101230.34;5073081;27;45470;-83
2022/03/03 01:55:40;;;;;;;;;62.25;51.50;;;;;34.99;14.41;101189.09;5073750;28;45519;-83
2022/03/03 01:58:06;;;;;;;;;74.75;58.00;;;;;34.78;14.94;101198.97;5074912;28;46517;-83
2022/03/03 02:00:32;;;;;;;;;76.75;58.00;;;;;34.59;14.92;101196.75;5073791;27;45784;-83
2022/03/03 02:03:00;;;;;;;;;70.00;52.25;;;;;34.65;14.78;101221.06;5075601;28;45441;-83
2022/03/03 02:05:26;;;;;;;;;74.75;58.75;;;;;34.16;15.08;101157.63;5074603;28;45376;-83
2022/03/03 02:07:51;;;;;;;;;65.75;53.75;;;;;34.19;15.32;101171.19;5083633;27;45471;-83
2022/03/03 02:10:17;;;;;;;;;72.75;56.50;;;;;34.66;15.24;101222.84;5060561;28;45846;-83
2022/03/03 02:12:42;;;;;;;;;74.25;59.00;;;;;34.67;15.01;101203.44;5078660;28;45201;-82
2022/03/03 02:15:16;;;;;;;;;73.50;56.75;;;;;34.89;14.91;101207.31;5070538;28;45272;-83
2022/03/03 02:17:41;;;;;;;;;64.75;52.25;;;;;34.91;14.80;101204.44;5038121;28;46233;-83
2022/03/03 02:20:08;;;;;;;;;71.00;56.75;;;;;34.91;14.70;101198.94;5037006;28;45352;-84
2022/03/03 02:22:35;;;;;;;;;72.25;57.00;;;;;34.93;14.59;101163.88;5038180;28;45391;-84
2022/03/03 02:25:00;;;;;;;;;69.00;56.00;;;;;35.16;14.63;101153.78;5070557;28;45340;-84
2022/03/03 02:27:26;;;;;;;;;68.50;53.25;;;;;35.55;13.88;101146.97;5036318;28;47334;-84
2022/03/03 02:29:52;;;;;;;;;73.00;58.00;;;;;36.05;13.90;101192.72;5036778;28;45525;-84
2022/03/03 02:32:18;;;;;;;;;67.25;53.25;;;;;36.06;14.07;101166.84;5038045;28;45520;-84
2022/03/03 02:34:47;;;;;;;;;69.50;54.25;;;;;36.46;13.63;101205.00;5036741;28;45793;-83
2022/03/03 02:37:13;;;;;;;;;68.00;54.75;;;;;36.17;13.70;101182.53;5070360;28;47194;-84
2022/03/03 02:39:38;;;;;;;;;70.00;55.00;;;;;35.76;13.70;101189.53;5070175;28;45557;-84
2022/03/03 02:42:04;;;;;;;;;66.00;52.50;;;;;35.20;14.54;101141.50;5038100;28;45255;-84
2022/03/03 02:44:29;;;;;;;;;73.75;55.75;;;;;34.82;14.56;101132.47;5036788;28;45350;-84
2022/03/03 02:46:54;;;;;;;;;73.50;58.75;;;;;34.43;15.05;101117.13;5038066;28;47096;-84
2022/03/03 02:49:20;;;;;;;;;73.75;58.00;;;;;34.46;15.09;101139.81;5070183;28;45275;-85
2022/03/03 02:51:45;;;;;;;;;71.50;56.00;;;;;34.45;15.04;101135.31;5037991;28;45553;-84
2022/03/03 02:54:10;;;;;;;;;70.00;57.00;;;;;34.37;15.00;101115.72;5036537;28;45424;-84
2022/03/03 02:57:53;;;;;;;;;69.75;54.75;;;;;34.41;15.28;101125.50;5069729;28;46998;-85
2022/03/03 02:59:21;;;;;;;;;70.75;53.25;;;;;35.11;15.00;101178.09;5037555;28;45363;-84
2022/03/03 03:01:47;;;;;;;;;71.00;54.25;;;;;35.18;14.75;101138.00;5037648;28;46239;-84
2022/03/03 03:04:12;;;;;;;;;69.25;55.25;;;;;35.28;14.63;101128.00;5038231;28;45395;-83
2022/03/03 03:06:37;;;;;;;;;69.75;53.50;;;;;35.71;14.84;101187.13;5069963;28;48105;-84
2022/03/03 03:09:03;;;;;;;;;68.25;53.00;;;;;35.25;14.61;101103.41;5042784;28;45856;-84
2022/03/03 03:11:28;;;;;;;;;63.25;49.75;;;;;35.61;14.75;101108.84;5073432;28;45327;-84
2022/03/03 03:13:53;;;;;;;;;63.50;51.00;;;;;35.80;14.32;101100.81;5056496;28;45533;-84
2022/03/03 03:16:19;;;;;;;;;62.50;51.00;;;;;35.83;14.50;101147.53;5073171;28;47098;-84
2022/03/03 03:18:44;;;;;;;;;66.50;51.25;;;;;35.82;14.26;101118.16;5056608;28;45417;-84
2022/03/03 03:21:09;;;;;;;;;59.75;50.00;;;;;35.88;15.03;101145.28;5073679;28;45452;-84
2022/03/03 03:23:35;;;;;;;;;66.25;51.50;;;;;35.36;15.16;101139.31;5073386;28;45475;-84
2022/03/03 03:26:00;;;;;;;;;57.75;48.50;;;;;35.19;15.34;101115.81;5072855;28;46832;-84
2022/03/03 03:28:25;;;;;;;;;64.00;51.75;;;;;35.41;15.15;101119.63;5057538;28;45425;-84
2022/03/03 03:30:51;;;;;;;;;67.50;53.75;;;;;35.24;15.02;101117.34;5073467;28;45376;-84
2022/03/03 03:33:16;;;;;;;;;61.00;49.00;;;;;35.12;15.35;101088.84;5057723;28;45398;-84
2022/03/03 03:35:42;;;;;;;;;64.50;52.25;;;;;35.93;15.05;101147.66;5072838;27;46813;-84
2022/03/03 03:38:08;;;;;;;;;66.25;52.25;;;;;35.90;15.26;101153.44;5057517;28;45330;-84
2022/03/03 03:40:33;;;;;;;;;68.25;52.75;;;;;35.77;15.25;101158.16;5055656;28;45343;-84
2022/03/03 03:42:59;;;;;;;;;66.50;53.25;;;;;35.70;15.37;101124.69;5057291;28;45548;-84
2022/03/03 03:45:24;;;;;;;;;61.00;49.25;;;;;35.38;15.51;101040.75;5057012;28;45491;-84
2022/03/03 03:47:49;;;;;;;;;64.50;51.00;;;;;35.77;14.90;101079.00;5055363;28;45385;-84
2022/03/03 03:50:15;;;;;;;;;63.50;50.50;;;;;35.84;15.14;101065.59;5056972;28;45451;-84
2022/03/03 03:52:41;;;;;;;;;60.25;49.75;;;;;36.38;14.80;101146.72;5057003;28;45409;-84
2022/03/03 03:55:09;;;;;;;;;63.50;50.00;;;;;36.30;14.94;101118.84;5055416;28;48424;-83
2022/03/03 03:57:35;;;;;;;;;59.50;47.50;;;;;36.78;14.66;101143.34;5055799;28;46232;-83
2022/03/03 04:00:02;;;;;;;;;14.00;8.75;;;;;36.80;14.40;101130.28;5056929;28;45433;-83
2022/03/03 04:02:27;;;;;;;;;62.00;48.50;;;;;36.32;14.28;101080.94;5072606;28;45344;-80
2022/03/03 04:04:53;;;;;;;;;58.25;47.50;;;;;36.35;15.00;101088.97;5055502;28;47939;-81
2022/03/03 04:07:21;;;;;;;;;58.50;46.25;;;;;36.32;14.65;101084.59;5072378;28;46036;-80
2022/03/03 04:09:46;;;;;;;;;56.00;48.00;;;;;36.15;15.16;101086.00;5055956;28;46847;-81
2022/03/03 04:12:12;;;;;;;;;64.00;51.00;;;;;36.28;15.26;101112.56;5056758;28;45389;-81
2022/03/03 04:14:37;;;;;;;;;58.00;47.50;;;;;36.04;15.38;101102.59;5059721;28;46728;-81
2022/03/03 04:17:03;;;;;;;;;57.75;46.00;;;;;36.09;15.05;101132.56;5076736;28;45395;-82
2022/03/03 04:19:28;;;;;;;;;59.50;48.25;;;;;35.98;15.01;101058.91;5075616;28;45322;-82
2022/03/03 04:21:53;;;;;;;;;63.25;49.75;;;;;35.92;15.08;101056.66;5058640;28;45362;-81
2022/03/03 04:24:19;;;;;;;;;59.25;49.00;;;;;36.37;15.44;101100.75;5076386;28;45442;-81
2022/03/03 04:26:44;;;;;;;;;57.67;46.33;;;;;36.20;15.14;101067.16;5076369;28;45386;-82
2022/03/03 04:29:10;;;;;;;;;55.75;44.00;;;;;36.31;15.20;101079.19;5058194;28;45623;-81
2022/03/03 04:31:35;;;;;;;;;59.00;48.50;;;;;36.48;14.63;101074.97;5058545;28;45466;-82
2022/03/03 04:34:01;;;;;;;;;59.00;46.25;;;;;36.80;14.80;101074.97;5076427;28;46193;-82
2022/03/03 04:36:27;;;;;;;;;59.50;47.75;;;;;36.86;14.94;101104.84;5076675;28;45418;-82
2022/03/03 04:38:52;;;;;;;;;59.25;45.50;;;;;36.97;14.26;101067.97;5057932;28;45425;-79
2022/03/03 04:41:21;;;;;;;;;59.25;47.75;;;;;37.12;14.92;101100.78;5076819;28;45435;-80
2022/03/03 04:43:46;;;;;;;;;57.75;46.00;;;;;36.70;14.91;101098.88;5076186;28;45664;-78
2022/03/03 04:46:12;;;;;;;;;57.00;48.25;;;;;36.54;15.58;101091.91;5088432;27;45422;-78
2022/03/03 04:48:37;;;;;;;;;58.25;46.25;;;;;36.17;15.59;101058.22;5078751;27;45612;-80
2022/03/03 04:51:03;;;;;;;;;51.00;43.00;;;;;36.25;15.60;101064.00;5096816;27;45448;-80
2022/03/03 04:53:29;;;;;;;;;49.67;42.33;;;;;36.48;15.54;101036.28;5096419;27;45389;-78
2022/03/03 04:55:55;;;;;;;;;56.67;46.00;;;;;37.12;15.02;101095.25;5095116;27;46050;-78
2022/03/03 04:58:21;;;;;;;;;55.67;45.67;;;;;36.57;14.84;101072.31;5096721;27;45488;-82
2022/03/03 05:00:47;;;;;;;;;56.50;46.50;;;;;36.99;15.15;101082.53;5096743;27;45639;-78
2022/03/03 05:03:12;;;;;;;;;58.00;46.75;;;;;36.06;15.26;101045.31;5087040;27;45414;-78
2022/03/03 05:05:37;;;;;;;;;51.00;43.33;;;;;37.02;14.77;101073.97;5070908;27;45606;-79
2022/03/03 05:08:03;;;;;;;;;54.50;44.50;;;;;37.19;14.92;101072.47;5095594;27;45397;-79
2022/03/03 05:10:28;;;;;;;;;56.25;44.00;;;;;36.99;14.72;101078.88;5085129;27;45474;-79
2022/03/03 05:12:54;;;;;;;;;53.00;44.00;;;;;36.95;15.52;101086.59;5075850;28;45615;-79
2022/03/03 05:15:20;;;;;;;;;54.50;46.25;;;;;36.68;15.88;101084.31;5081525;27;45410;-83
2022/03/03 05:17:45;;;;;;;;;59.00;44.75;;;;;36.48;15.39;101073.09;5096140;27;45477;-83
2022/03/03 05:20:13;;;;;;;;;55.50;45.75;;;;;36.12;16.26;101066.91;5078031;27;45520;-83
2022/03/03 05:22:38;;;;;;;;;56.75;46.25;;;;;36.07;15.99;101071.94;5096145;27;45501;-83
2022/03/03 05:25:04;;;;;;;;;54.50;44.50;;;;;36.34;15.49;101079.78;5096058;27;45432;-83
2022/03/03 05:27:29;;;;;;;;;53.33;43.67;;;;;35.60;16.28;101038.09;5078213;27;45287;-83
2022/03/03 05:29:55;;;;;;;;;63.67;49.33;;;;;35.70;15.83;101052.91;5077887;27;45510;-83
2022/03/03 05:32:20;;;;;;;;;53.00;44.50;;;;;35.82;16.20;101046.38;5096575;27;45376;-83
2022/03/03 05:34:45;;;;;;;;;48.00;40.67;;;;;36.02;15.70;101049.34;5093842;27;45793;-86
2022/03/03 05:37:14;;;;;;;;;49.33;42.00;;;;;36.21;15.98;101076.31;5075430;28;45417;-83
2022/03/03 05:39:41;;;;;;;;;54.33;43.33;;;;;36.17;15.79;101061.00;5075834;28;45395;-83
2022/03/03 05:42:07;;;;;;;;;50.00;41.00;;;;;35.68;16.50;101022.69;5075193;28;45450;-83
2022/03/03 05:44:34;;;;;;;;;54.00;45.00;;;;;35.27;16.64;101056.41;5057519;28;45519;-83
2022/03/03 05:47:01;;;;;;;;;55.67;43.67;;;;;35.14;16.59;101043.59;5075430;28;45545;-83
2022/03/03 05:49:27;;;;;;;;;52.33;41.33;;;;;35.51;16.50;101070.09;5057041;28;45378;-83
2022/03/03 05:51:52;;;;;;;;;56.67;45.00;;;;;35.61;16.16;101065.56;5074961;28;45914;-83
2022/03/03 05:54:18;;;;;;;;;51.00;44.00;;;;;36.00;16.24;101090.03;5075519;28;45519;-83
2022/03/03 05:56:48;;;;;;;;;45.67;39.00;;;;;35.50;16.03;101005.78;5075805;28;45181;-83
2022/03/03 05:59:15;;;;;;;;;53.00;40.00;;;;;35.75;16.48;101064.44;5057266;28;45327;-83
2022/03/03 06:01:42;;;;;;;;;54.33;43.67;;;;;35.80;16.66;101086.16;5056923;28;48095;-83
2022/03/03 06:04:12;;;;;;;;;49.00;37.33;;;;;36.08;16.37;101079.22;5075123;28;45320;-83
2022/03/03 06:06:38;;;;;;;;;51.00;40.00;;;;;35.95;16.29;101037.97;5075693;28;45632;-83
2022/03/03 06:09:09;;;;;;;;;47.00;39.67;;;;;36.35;15.77;101081.56;5057198;28;45493;-83
2022/03/03 06:12:00;;;;;;;;;51.67;41.00;;;;;36.12;16.22;101058.63;5075485;28;46603;-83
2022/03/03 06:14:50;;;;;;;;;49.33;39.33;;;;;36.36;16.27;101085.22;5056605;28;46128;-83
2022/03/03 06:17:19;;;;;;;;;54.00;43.33;;;;;35.95;16.27;101050.88;5075481;28;45427;-83
2022/03/03 06:19:46;;;;;;;;;43.67;37.67;;;;;35.75;16.39;101078.22;5056845;28;45525;-83
2022/03/03 06:22:12;;;;;;;;;53.00;40.33;;;;;35.65;16.80;101085.53;5075088;28;46060;-83
2022/03/03 06:24:38;;;;;;;;;48.33;40.00;;;;;35.75;17.12;101081.00;5057015;28;45409;-83
2022/03/03 06:27:04;;;;;;;;;53.67;42.00;;;;;35.44;17.03;101074.38;5056777;28;45304;-83
2022/03/03 06:29:31;;;;;;;;;51.67;43.33;;;;;35.32;17.01;101066.09;5075028;28;45442;-83
2022/03/03 06:31:57;;;;;;;;;50.67;40.00;;;;;35.22;17.33;101060.41;5074789;28;45480;-82
2022/03/03 06:34:23;;;;;;;;;51.00;42.00;;;;;35.37;16.57;101050.06;5074682;28;45366;-83
2022/03/03 06:36:48;;;;;;;;;45.00;37.67;;;;;35.60;16.71;101093.28;5075207;28;45488;-83
2022/03/03 06:39:14;;;;;;;;;52.33;42.67;;;;;35.65;16.93;101071.72;5074847;28;45342;-83
2022/03/03 06:41:39;;;;;;;;;50.33;40.00;;;;;35.78;16.80;101080.75;5074769;28;45960;-83
2022/03/03 06:44:05;;;;;;;;;55.00;45.67;;;;;35.38;16.99;101042.63;5074563;28;45565;-83
2022/03/03 06:46:30;;;;;;;;;50.67;40.67;;;;;35.50;17.00;101074.75;5075208;28;45425;-83
2022/03/03 06:48:56;;;;;;;;;52.67;42.67;;;;;35.45;17.05;101063.19;5074450;28;45636;-83
2022/03/03 06:51:22;;;;;;;;;47.00;38.00;;;;;35.69;16.73;101079.63;5056465;28;47482;-83
2022/03/03 06:53:57;;;;;;;;;47.33;40.00;;;;;35.72;16.70;101078.50;5059027;28;45544;-83
2022/03/03 06:56:23;;;;;;;;;48.00;40.33;;;;;35.71;16.95;101066.59;5060093;28;45312;-83
2022/03/03 06:58:50;;;;;;;;;49.67;39.67;;;;;35.81;16.94;101072.25;5060152;28;45264;-83
2022/03/03 07:01:18;;;;;;;;;47.67;41.00;;;;;35.51;16.42;101039.75;5076600;28;48440;-83
2022/03/03 07:03:44;;;;;;;;;55.33;43.33;;;;;35.80;16.85;101064.06;5059169;28;45879;-83
2022/03/03 07:06:09;;;;;;;;;51.00;39.67;;;;;35.81;16.92;101107.25;5059846;28;45577;-83
2022/03/03 07:08:35;;;;;;;;;44.33;38.00;;;;;35.07;17.50;101012.00;5078039;28;45652;-83
2022/03/03 07:11:01;;;;;;;;;51.33;41.67;;;;;35.62;16.95;101114.25;5093185;27;46306;-83
2022/03/03 07:13:26;;;;;;;;;53.33;41.00;;;;;35.60;17.33;101091.44;5080389;27;45641;-83
2022/03/03 07:15:54;;;;;;;;;55.00;44.67;;;;;35.29;17.44;101059.91;5098262;27;45352;-83
2022/03/03 07:18:24;;;;;;;;;53.67;40.67;;;;;35.38;17.42;101104.19;5079612;27;45389;-82
2022/03/03 07:20:58;;;;;;;;;53.33;41.00;;;;;35.36;17.37;101099.84;5079724;27;47186;-83
2022/03/03 07:23:32;;;;;;;;;50.67;42.00;;;;;35.72;17.04;101090.44;5096858;27;45439;-83
2022/03/03 07:26:00;;;;;;;;;57.00;44.00;;;;;35.86;16.93;101045.13;5098424;27;45491;-83
2022/03/03 07:28:27;;;;;;;;;50.33;40.33;;;;;35.97;16.14;101051.66;5097976;27;45530;-83
2022/03/03 07:30:53;;;;;;;;;51.33;43.00;;;;;35.93;16.07;101008.72;5097890;27;45465;-83
2022/03/03 07:33:26;;;;;;;;;49.33;42.00;;;;;35.87;16.97;101041.38;5097549;27;45505;-83
2022/03/03 07:35:56;;;;;;;;;46.00;38.33;;;;;36.37;16.42;101101.66;5098294;27;45340;-83
2022/03/03 07:38:26;;;;;;;;;50.00;42.33;;;;;36.30;16.25;101063.59;5079519;27;45364;-83
2022/03/03 07:40:52;;;;;;;;;52.00;41.00;;;;;36.40;16.23;101101.38;5079682;27;48401;-83
2022/03/03 07:43:19;;;;;;;;;51.67;41.67;;;;;35.93;17.24;101089.66;5096460;27;45408;-83
2022/03/03 07:45:46;;;;;;;;;48.33;41.33;;;;;36.22;16.44;101087.22;5079394;27;45433;-83
2022/03/03 07:48:12;;;;;;;;;46.33;40.33;;;;;36.54;16.46;101091.91;5096484;27;45531;-83
2022/03/03 07:50:40;;;;;;;;;41.00;33.67;;;;;36.33;16.22;101083.59;5097459;27;45481;-83
2022/03/03 07:53:10;;;;;;;;;55.67;41.00;;;;;36.27;16.50;101086.81;5097388;27;45389;-83
2022/03/03 07:55:43;;;;;;;;;57.67;42.00;;;;;36.11;16.47;101067.06;5097820;27;45292;-83
2022/03/03 07:58:17;;;;;;;;;46.33;36.00;;;;;36.39;16.70;101112.56;5097300;27;45485;-83
2022/03/03 08:00:50;;;;;;;;;44.00;36.33;;;;;35.95;16.62;101037.06;5097976;27;45386;-83
2022/03/03 08:03:19;;;;;;;;;51.33;42.67;;;;;36.36;16.71;101090.75;5078377;27;45906;-83
2022/03/03 08:05:46;;;;;;;;;51.00;42.33;;;;;36.52;16.37;101107.75;5097622;27;45316;-83
2022/03/03 08:08:16;;;;;;;;;51.33;41.33;;;;;36.65;16.32;101099.25;5097258;27;45235;-83
2022/03/03 08:10:44;;;;;;;;;50.67;42.67;;;;;36.26;16.65;101070.38;5078834;27;48200;-83
2022/03/03 08:13:14;;;;;;;;;43.00;37.33;;;;;36.64;17.06;101094.75;5097512;27;45402;-83
2022/03/03 08:15:42;;;;;;;;;53.67;44.00;;;;;36.68;16.18;101076.91;5078566;27;45475;-83
2022/03/03 08:18:08;;;;;;;;;47.67;40.67;;;;;36.52;16.42;101037.78;5097321;27;45572;-83
2022/03/03 08:20:34;;;;;;;;;54.00;40.00;;;;;36.69;16.50;101092.47;5078723;27;47206;-83
2022/03/03 08:23:01;;;;;;;;;49.33;37.33;;;;;36.99;16.20;101101.91;5078933;27;45397;-83
2022/03/03 08:25:27;;;;;;;;;54.00;42.00;;;;;36.86;15.85;101073.56;5097195;27;45461;-83
2022/03/03 08:27:54;;;;;;;;;47.33;39.00;;;;;36.67;16.32;101033.69;5078658;27;45433;-83
2022/03/03 08:30:20;;;;;;;;;49.67;40.33;;;;;36.80;15.78;101068.59;5077954;27;47149;-83
2022/03/03 08:33:11;;;;;;;;;51.67;41.33;;;;;37.12;15.97;101098.03;5096838;27;45497;-83
2022/03/03 08:35:41;;;;;;;;;44.33;38.33;;;;;37.02;16.50;101081.38;5078621;27;45217;-83
2022/03/03 08:38:15;;;;;;;;;44.00;37.00;;;;;36.70;16.22;101068.47;5096869;27;45526;-82
2022/03/03 08:40:44;;;;;;;;;49.33;39.33;;;;;36.47;16.78;101049.25;5078396;27;47234;-83
2022/03/03 08:43:14;;;;;;;;;38.33;35.00;;;;;36.36;17.05;101072.25;5077937;27;45502;-83
2022/03/03 08:45:39;;;;;;;;;49.33;40.00;;;;;36.31;16.72;101074.53;5096641;27;45481;-83
2022/03/03 08:48:08;;;;;;;;;45.67;39.33;;;;;36.66;16.55;101101.03;5096210;27;45540;-82
2022/03/03 08:50:37;;;;;;;;;49.33;38.67;;;;;36.81;16.95;101103.50;5078005;27;47249;-82
2022/03/03 08:53:04;;;;;;;;;42.67;38.00;;;;;37.17;16.14;101104.03;5096717;27;45352;-83
2022/03/03 08:55:32;;;;;;;;;46.00;38.00;;;;;37.43;16.06;101099.00;5096985;27;45496;-83
2022/03/03 08:57:58;;;;;;;;;44.33;36.33;;;;;37.12;16.62;101104.47;5096453;27;45749;-83
2022/03/03 09:00:24;;;;;;;;;50.33;40.33;;;;;37.05;16.49;101097.72;5096074;27;45591;-83
2022/03/03 09:02:50;;;;;;;;;49.67;38.67;;;;;37.21;16.19;101075.97;5097761;27;45379;-83
2022/03/03 09:05:16;;;;;;;;;47.67;36.33;;;;;37.10;16.42;101069.66;5078364;27;45229;-83
2022/03/03 09:07:42;;;;;;;;;48.67;40.00;;;;;37.12;16.42;101074.03;5096910;27;45264;-83
2022/03/03 09:10:09;;;;;;;;;47.67;38.00;;;;;37.20;16.77;101082.53;5096534;27;46296;-83
2022/03/03 09:12:35;;;;;;;;;46.33;39.00;;;;;37.31;16.19;101072.41;5096120;27;45554;-82
2022/03/03 09:15:01;;;;;;;;;51.00;41.33;;;;;37.54;15.88;101106.31;5095691;27;45322;-83
2022/03/03 09:17:26;;;;;;;;;45.00;39.33;;;;;37.64;15.91;101076.78;5077991;27;45648;-84
2022/03/03 09:19:52;;;;;;;;;49.00;39.33;;;;;37.77;15.98;101104.25;5096470;27;46348;-83
2022/03/03 09:22:17;;;;;;;;;44.33;36.00;;;;;37.70;15.97;101067.06;5096445;27;45492;-83
2022/03/03 09:24:42;;;;;;;;;46.00;38.67;;;;;37.51;15.70;101062.31;5078315;27;45362;-81
2022/03/03 09:27:08;;;;;;;;;47.67;40.00;;;;;37.26;15.95;101078.34;5094705;27;45505;-80
2022/03/03 09:29:34;;;;;;;;;39.67;37.00;;;;;36.67;17.00;101116.59;5077882;27;46145;-80
2022/03/03 09:32:01;;;;;;;;;47.33;39.00;;;;;36.70;16.92;101085.06;5096256;27;45441;-80
2022/03/03 09:34:28;;;;;;;;;39.33;36.33;;;;;37.03;16.26;101111.69;5096323;27;45351;-80
2022/03/03 09:36:54;;;;;;;;;45.33;37.33;;;;;37.34;15.92;101066.59;5077787;27;45287;-78
2022/03/03 09:39:19;;;;;;;;;46.67;37.00;;;;;37.38;16.39;101068.94;5077125;27;48487;-76
2022/03/03 09:41:45;;;;;;;;;50.00;39.33;;;;;37.46;15.94;101095.94;5077529;27;45442;-78
2022/03/03 09:44:13;;;;;;;;;43.67;36.33;;;;;37.11;16.20;101069.50;5095522;27;45441;-78
2022/03/03 09:46:39;;;;;;;;;39.67;35.67;;;;;37.17;16.17;101104.03;5095804;27;45382;-78
2022/03/03 09:49:04;;;;;;;;;44.33;39.33;;;;;37.47;16.33;101099.56;5095685;27;45403;-78
2022/03/03 09:51:30;;;;;;;;;49.67;37.00;;;;;37.47;16.22;101080.19;5095912;27;45445;-77
2022/03/03 09:53:55;;;;;;;;;47.00;36.67;;;;;37.73;15.88;101102.75;5096149;27;45409;-79
2022/03/03 09:56:21;;;;;;;;;44.67;36.67;;;;;37.74;16.16;101099.88;5094930;27;45384;-78
2022/03/03 09:58:47;;;;;;;;;44.33;36.33;;;;;38.08;15.55;101102.31;5095881;27;45489;-79
2022/03/03 10:01:13;;;;;;;;;50.33;42.00;;;;;37.61;15.94;101087.25;5095995;27;45382;-79
2022/03/03 10:03:39;;;;;;;;;50.00;41.33;;;;;37.52;16.48;101095.38;5070259;27;45320;-79
2022/03/03 10:06:05;;;;;;;;;46.33;38.00;;;;;37.44;16.28;101106.25;5087687;27;45537;-79
2022/03/03 10:08:31;;;;;;;;;50.67;40.67;;;;;37.45;16.44;101099.72;5076321;27;47392;-78
2022/03/03 10:11:02;;;;;;;;;47.33;37.67;;;;;37.78;15.71;101081.09;5095306;27;45437;-79
2022/03/03 10:13:44;;;;;;;;;49.67;38.33;;;;;38.11;16.23;101090.06;5073868;27;45421;-80
2022/03/03 10:16:09;;;;;;;;;46.67;39.33;;;;;38.14;15.48;101098.09;5095611;27;45594;-80
2022/03/03 10:18:34;;;;;;;;;48.33;38.67;;;;;37.81;15.67;101078.03;5092908;27;48030;-79
2022/03/03 10:21:02;;;;;;;;;42.33;36.67;;;;;38.15;15.62;101097.06;5082019;27;46743;-81
2022/03/03 10:23:29;;;;;;;;;28.00;22.67;;;;;37.79;16.18;101081.97;5067019;27;45409;-78
2022/03/03 10:25:57;;;;;;;;;54.67;41.67;;;;;37.24;16.62;101091.41;5078266;27;45538;-78
2022/03/03 10:28:33;;;;;;;;;42.67;36.67;;;;;37.59;15.96;101084.63;5093530;27;45473;-79
2022/03/03 10:31:08;;;;;;;;;39.67;36.00;;;;;37.64;15.98;101086.97;5085519;27;45465;-79
2022/03/03 10:33:38;;;;;;;;;44.33;36.33;;;;;38.17;15.74;101083.06;5078097;27;45856;-81
2022/03/03 10:36:08;;;;;;;;;44.00;36.00;;;;;38.28;15.04;101087.66;5092510;27;45649;-80
2022/03/03 10:38:53;;;;;;;;;40.67;36.00;;;;;38.00;16.00;101073.56;5075712;27;47468;-81
2022/03/03 10:41:28;;;;;;;;;39.00;35.67;;;;;38.41;15.81;101089.13;5080905;27;45423;-81
2022/03/03 10:43:53;;;;;;;;;42.00;35.67;;;;;38.37;15.33;101084.00;5075674;27;45502;-81
2022/03/03 10:46:18;;;;;;;;;41.33;36.00;;;;;38.70;14.93;101091.03;5073148;28;45576;-82
2022/03/03 10:48:44;;;;;;;;;43.67;37.67;;;;;38.60;15.29;101077.16;5074534;28;46526;-82
2022/03/03 10:51:14;;;;;;;;;44.00;36.00;;;;;37.88;15.99;101086.69;5083229;27;45491;-82
2022/03/03 10:53:39;;;;;;;;;49.00;37.67;;;;;37.87;15.92;101077.47;5073660;27;45452;-79
2022/03/03 10:56:06;;;;;;;;;43.00;34.33;;;;;38.02;15.64;101089.03;5077192;27;45731;-81
2022/03/03 10:58:54;;;;;;;;;44.67;38.00;;;;;37.93;15.34;101090.78;5071107;27;47149;-82
2022/03/03 11:01:27;;;;;;;;;44.33;38.67;;;;;37.64;15.57;101084.19;5077074;27;45440;-82
2022/03/03 11:03:53;;;;;;;;;47.00;39.00;;;;;37.96;15.79;101081.28;5086247;27;45567;-80
2022/03/03 11:06:28;;;;;;;;;46.00;38.00;;;;;37.05;16.73;101029.44;5081592;27;45626;-80
2022/03/03 11:08:55;;;;;;;;;51.33;41.00;;;;;36.50;17.15;101076.59;5056624;27;48282;-79